KNRB/NRB METAR and TAF weather

Enter ICAO airport designator
Station Type Date Time Source
KNRB METAR 2021/10/24 20:52 UTC NOAA

KNRB 242052Z AUTO 04010KT 10SM CLR 26/21 A3003 RMK AO2 SLP168 T02610206 56012


Station Type Date Time Source
KNRB Decoded METAR 2021/10/24 20:52 UTC NOAA

MAYPORT NAVAL AIR FACILITY, FL, United States (KNRB) 30-24N 81-25W 4M
Oct 24, 2021 - 04:52 PM EDT / 2021.10.24 2052 UTC
Wind: from the NE (040 degrees) at 12 MPH (10 KT):0
Visibility: 10 mile(s):0
Sky conditions: clear
Temperature: 79.0 F (26.1 C)
Dew Point: 69.1 F (20.6 C)
Relative Humidity: 71%
Pressure (altimeter): 30.03 in. Hg (1016 hPa)
Pressure tendency: 0.04 inches (1.2 hPa) lower than three hours ago
ob: KNRB 242052Z AUTO 04010KT 10SM CLR 26/21 A3003 RMK AO2 SLP168 T02610206 56012
cycle: 21

Station Type Date Time Source
KNRB TAF 2021/10/22 15:03 UTC NOAA

TAF KNRB 2215/2315 23008KT 9999 FEW030 SCT150 BKN250 QHN3000INS
FM221800 16008KT 9999 SCT040 BKN150 BKN250 QNH2994INS
FM230200 24005KT 9999 FEW045 BKN250 QNH2998INS T30/2219Z T20/2311Z FN20021

Example: see airport list